Back to Top
Banner_Quays_at_Mast_2020.jpeg
Banner_VERITY.jpeg
Banner_P42_Kinsale_2004.jpeg
Superyacht_SCOUT.jpg
Kinsale_Trawlers_Banner.jpeg
previous arrow
next arrow

Port Arrivals Report (AIS)

This report is generated from collected AIS (Automated Identification System) signals from vessels entering port.

IMO MMSI Class Flag Vessel Name Vessel type Nav Status Destination Call Sign Latitude Longitude Speed (kts) Course (T) Draught (m) LOA (m) Beam (m) Timestamp
0 227470510 B FR BLEU TONNERRE SAILING. - FG9669 51.6871 -8.49837 3 4.8 0 14 4 2024-05-29 17:32:16
0 211580740 B DE RED HERRING Pleasure craft - DK6874 51.6871 -8.49903 1.7 40.4 0 12 3 2024-05-29 17:21:15
0 211580740 B DE RED HERRING Pleasure craft - DK6874 51.6875 -8.4996 4.6 350.5 0 12 3 2024-05-29 12:11:16
0 250001206 B IE CAPELLA OF KINSALE SAILING. - EIDI6 51.688 -8.49888 5.9 350 0 12 4 2024-05-28 20:04:45
0 232016609 B GB RNLI LIFEBOAT B-909 SAR. - 51.6875 -8.49848 26.6 6.7 0 8 2 2024-05-28 19:30:09
0 250001748 A IE LIR DREDGING / UNDERWATER Ops. - EIHI2 51.6875 -8.49956 7.7 4.4 1 11 2 2024-05-28 09:22:35
0 250001748 A IE LIR DREDGING / UNDERWATER Ops. - EIHI2 51.6893 -8.49953 3.4 348.7 1 11 2 2024-05-28 08:41:35
0 250006459 B IE GOLDENEYE SAILING. - EI-ZA-4 51.6878 -8.49982 6.3 344.5 0 10 4 2024-05-27 17:15:50
0 250005517 B IE HAFOD Pleasure craft - EI-VE-3 51.6883 -8.50104 4.8 350.4 0 10 3 2024-05-27 12:38:13
0 250000533 A IE GALTEE DREDGING / UNDERWATER Ops. - SURVEY_OPERATIONS EI835 51.6902 -8.50047 18.8 333.7 0 11 3 2024-05-27 12:17:48
9049152 250000466 A IE NAOMH PEADAR 2 FISHING. - SEARCHING FOR FISH EI8173 51.6871 -8.4983 7 355 5.2 23 8 2024-05-27 08:10:35
0 235029073 B GB TIGGER TOO SAILING. - MYBD6 51.6876 -8.49947 5.3 349.5 0 11 4 2024-05-26 19:15:51
0 250001311 B IE ZURI SAILING. - EI-EB-7 51.6883 -8.49779 3 7.4 0 11 4 2024-05-26 12:56:37
0 235115374 B GB ATALANTA SAILING. - 2JFA7 51.688 -8.49948 5 354.7 0 12 4 2024-05-26 10:58:49
0 227120410 B FR LOGODEN SAILING. - FAA4170 51.6876 -8.49778 4.8 359.4 0 10 4 2024-05-26 06:30:24
0 250014114 B IE JAVA BLUE SAILING. - EIA2579 51.6875 -8.49811 6.9 342.7 0 14 4 2024-05-25 16:19:00
0 232031872 B GB EIVIVA SAILING. - MIKT3 51.6884 -8.49887 6.9 355.1 0 0 0 2024-05-25 14:18:54
0 250006372 B IE DALLIANCE SAILING. - EI6765 51.6887 -8.49958 4.7 16.5 0 8 4 2024-05-25 05:37:54
0 250006035 B IE VALFREYA SAILING. - EI-XB-6 51.688 -8.49762 6.2 315.8 0 10 3 2024-05-24 20:03:05
0 250003677 B IE SIBONEY SAILING. - EI-QT-2 51.6873 -8.4964 5.7 318 0 9 4 2024-05-24 20:01:51